Time,TemperatureF,DewpointF,PressureIn,WindDirection,WindDirectionDegrees,WindSpeedMPH,WindSpeedGustMPH,Humidity,HourlyPrecipIn,Conditions,Clouds,dailyrainin,SolarRadiationWatts/m^2,SoftwareType,DateUTC
2013-04-14 00:02:00,58.0,53.0,-100.00,SW,216,0.0,3.0,84,0.00,,,0.00,0.000000,,2013-04-14 05:02:00,
2013-04-14 00:32:00,60.0,55.0,-100.00,SE,132,1.0,5.0,83,0.00,,,0.00,0.000000,,2013-04-14 05:32:00,
2013-04-14 00:42:00,60.0,55.0,-100.00,SE,132,1.0,5.0,83,0.00,,,0.00,0.000000,,2013-04-14 05:42:00,
2013-04-14 00:52:00,60.0,55.0,-100.00,SE,132,1.0,5.0,83,0.00,,,0.00,0.000000,,2013-04-14 05:52:00,
2013-04-14 01:02:00,60.0,55.0,-100.00,SE,132,1.0,5.0,83,0.00,,,0.00,0.000000,,2013-04-14 06:02:00,
2013-04-14 01:32:00,59.0,56.0,-100.00,ESE,121,0.0,6.0,91,0.01,,,0.01,0.000000,,2013-04-14 06:32:00,
2013-04-14 01:42:00,59.0,56.0,-100.00,ESE,121,0.0,6.0,91,0.01,,,0.01,0.000000,,2013-04-14 06:42:00,
2013-04-14 01:52:00,59.0,56.0,-100.00,ESE,121,0.0,6.0,91,0.01,,,0.01,0.000000,,2013-04-14 06:52:00,
2013-04-14 02:02:00,59.0,56.0,-100.00,ESE,121,0.0,6.0,91,0.01,,,0.01,0.000000,,2013-04-14 07:02:00,
2013-04-14 02:33:00,58.0,57.0,-100.00,NNW,330,3.0,10.0,95,0.11,,,0.12,0.000000,,2013-04-14 07:33:00,
2013-04-14 02:42:00,58.0,57.0,-100.00,NNW,330,3.0,10.0,95,0.11,,,0.12,0.000000,,2013-04-14 07:42:00,
2013-04-14 02:52:00,58.0,57.0,-100.00,NNW,330,3.0,10.0,95,0.11,,,0.12,0.000000,,2013-04-14 07:52:00,
2013-04-14 03:02:00,58.0,57.0,-100.00,NNW,330,3.0,10.0,95,0.11,,,0.12,0.000000,,2013-04-14 08:02:00,
2013-04-14 03:33:00,58.0,57.0,-100.00,East,84,4.0,6.0,95,0.07,,,0.19,0.000000,,2013-04-14 08:33:00,
2013-04-14 03:43:00,58.0,57.0,-100.00,East,84,4.0,6.0,95,0.07,,,0.19,0.000000,,2013-04-14 08:43:00,
2013-04-14 03:52:00,58.0,57.0,-100.00,East,84,4.0,6.0,95,0.07,,,0.19,0.000000,,2013-04-14 08:52:00,
2013-04-14 04:03:00,58.0,57.0,-100.00,East,84,4.0,6.0,95,0.07,,,0.19,0.000000,,2013-04-14 09:03:00,
2013-04-14 04:33:00,57.0,56.0,-100.00,South,179,1.0,7.0,97,0.26,,,0.45,0.000000,,2013-04-14 09:33:00,
2013-04-14 04:43:00,57.0,56.0,-100.00,South,179,1.0,7.0,97,0.26,,,0.45,0.000000,,2013-04-14 09:43:00,
2013-04-14 04:54:00,57.0,56.0,-100.00,South,179,1.0,7.0,97,0.26,,,0.45,0.000000,,2013-04-14 09:54:00,
2013-04-14 05:03:00,57.0,56.0,-100.00,South,179,1.0,7.0,97,0.26,,,0.45,0.000000,,2013-04-14 10:03:00,
2013-04-14 05:33:00,57.0,56.0,-100.00,ENE,71,7.0,15.0,97,0.25,,,0.70,0.000000,,2013-04-14 10:33:00,
2013-04-14 05:43:00,57.0,56.0,-100.00,ENE,71,7.0,15.0,97,0.25,,,0.70,0.000000,,2013-04-14 10:43:00,
2013-04-14 05:52:00,57.0,56.0,-100.00,ENE,71,7.0,15.0,97,0.25,,,0.70,0.000000,,2013-04-14 10:52:00,
2013-04-14 06:02:00,57.0,56.0,-100.00,ENE,71,7.0,15.0,97,0.25,,,0.70,0.000000,,2013-04-14 11:02:00,
2013-04-14 06:33:00,57.0,56.0,-100.00,North,4,4.0,15.0,98,0.93,,,1.63,0.000000,,2013-04-14 11:33:00,
2013-04-14 06:42:00,57.0,56.0,-100.00,North,4,4.0,15.0,98,0.93,,,1.63,0.000000,,2013-04-14 11:42:00,
2013-04-14 06:53:00,57.0,56.0,-100.00,North,4,4.0,15.0,98,0.93,,,1.63,0.000000,,2013-04-14 11:53:00,
2013-04-14 07:02:00,57.0,56.0,-100.00,North,4,4.0,15.0,98,0.93,,,1.63,0.000000,,2013-04-14 12:02:00,
2013-04-14 07:32:00,57.0,57.0,-100.00,NE,51,4.0,13.0,99,0.92,,,2.55,0.000000,,2013-04-14 12:32:00,
2013-04-14 07:42:00,57.0,57.0,-100.00,NE,51,4.0,13.0,99,0.92,,,2.55,0.000000,,2013-04-14 12:42:00,
2013-04-14 07:52:00,57.0,57.0,-100.00,NE,51,4.0,13.0,99,0.92,,,2.55,0.000000,,2013-04-14 12:52:00,
2013-04-14 08:02:00,57.0,57.0,-100.00,NE,51,4.0,13.0,99,0.92,,,2.55,0.000000,,2013-04-14 13:02:00,
2013-04-14 08:33:00,57.0,57.0,-100.00,East,83,6.0,17.0,99,0.19,,,2.74,2.000000,,2013-04-14 13:33:00,
2013-04-14 08:43:00,57.0,57.0,-100.00,East,83,6.0,17.0,99,0.19,,,2.74,2.000000,,2013-04-14 13:43:00,
2013-04-14 08:52:00,57.0,57.0,-100.00,East,83,6.0,17.0,99,0.19,,,2.74,2.000000,,2013-04-14 13:52:00,
2013-04-14 09:02:00,57.0,57.0,-100.00,East,83,6.0,17.0,99,0.19,,,2.74,2.000000,,2013-04-14 14:02:00,
2013-04-14 09:32:00,57.0,57.0,-100.00,East,79,7.0,16.0,99,0.04,,,2.78,9.000000,,2013-04-14 14:32:00,
2013-04-14 09:42:00,57.0,57.0,-100.00,East,79,7.0,16.0,99,0.04,,,2.78,9.000000,,2013-04-14 14:42:00,
2013-04-14 09:53:00,57.0,57.0,-100.00,East,79,7.0,16.0,99,0.04,,,2.78,9.000000,,2013-04-14 14:53:00,
2013-04-14 10:02:00,57.0,57.0,-100.00,East,79,7.0,16.0,99,0.04,,,2.78,9.000000,,2013-04-14 15:02:00,
2013-04-14 10:34:00,58.0,57.0,-100.00,ENE,72,6.0,13.0,98,0.03,,,-99.99,47.000000,,2013-04-14 15:34:00,
2013-04-14 10:43:00,58.0,57.0,-100.00,ENE,72,6.0,13.0,98,0.03,,,-99.99,47.000000,,2013-04-14 15:43:00,
2013-04-14 10:53:00,58.0,57.0,-100.00,ENE,72,6.0,13.0,98,0.03,,,-99.99,47.000000,,2013-04-14 15:53:00,
2013-04-14 11:04:00,58.0,57.0,-100.00,ENE,72,6.0,13.0,98,0.03,,,-99.99,47.000000,,2013-04-14 16:04:00,
2013-04-14 11:33:00,59.0,58.0,-100.00,East,88,9.0,19.0,95,0.01,,,2.82,138.000000,,2013-04-14 16:33:00,
2013-04-14 11:43:00,59.0,58.0,-100.00,East,88,9.0,19.0,95,0.01,,,2.82,138.000000,,2013-04-14 16:43:00,
2013-04-14 11:53:00,59.0,58.0,-100.00,East,88,9.0,19.0,95,0.01,,,2.82,138.000000,,2013-04-14 16:53:00,
2013-04-14 12:02:00,59.0,58.0,-100.00,East,88,9.0,19.0,95,0.01,,,2.82,138.000000,,2013-04-14 17:02:00,
2013-04-14 12:33:00,65.0,60.0,-100.00,East,92,7.0,16.0,83,0.00,,,2.82,485.000000,,2013-04-14 17:33:00,
2013-04-14 12:42:00,65.0,60.0,-100.00,East,92,7.0,16.0,83,0.00,,,2.82,485.000000,,2013-04-14 17:42:00,
2013-04-14 12:53:00,65.0,60.0,-100.00,East,92,7.0,16.0,83,0.00,,,2.82,485.000000,,2013-04-14 17:53:00,
2013-04-14 13:02:00,65.0,60.0,-100.00,East,92,7.0,16.0,83,0.00,,,2.82,485.000000,,2013-04-14 18:02:00,
2013-04-14 13:33:00,70.0,59.0,-100.00,East,89,7.0,14.0,68,0.00,,,2.82,678.000000,,2013-04-14 18:33:00,
2013-04-14 13:43:00,70.0,59.0,-100.00,East,89,7.0,14.0,68,0.00,,,2.82,678.000000,,2013-04-14 18:43:00,
2013-04-14 13:53:00,70.0,59.0,-100.00,East,89,7.0,14.0,68,0.00,,,2.82,678.000000,,2013-04-14 18:53:00,
2013-04-14 14:03:00,70.0,59.0,-100.00,East,89,7.0,14.0,68,0.00,,,2.82,678.000000,,2013-04-14 19:03:00,
2013-04-14 14:33:00,72.0,58.0,-100.00,ESE,112,4.0,15.0,61,0.00,,,2.82,691.000000,,2013-04-14 19:33:00,
2013-04-14 14:43:00,72.0,58.0,-100.00,ESE,112,4.0,15.0,61,0.00,,,2.82,691.000000,,2013-04-14 19:43:00,
2013-04-14 14:53:00,72.0,58.0,-100.00,ESE,112,4.0,15.0,61,0.00,,,2.82,691.000000,,2013-04-14 19:53:00,
2013-04-14 15:02:00,72.0,58.0,-100.00,ESE,112,4.0,15.0,61,0.00,,,2.82,691.000000,,2013-04-14 20:02:00,
2013-04-14 15:33:00,74.0,57.0,-100.00,East,92,3.0,12.0,55,0.00,,,2.82,640.000000,,2013-04-14 20:33:00,
2013-04-14 15:43:00,74.0,57.0,-100.00,East,92,3.0,12.0,55,0.00,,,2.82,640.000000,,2013-04-14 20:43:00,
2013-04-14 15:52:00,74.0,57.0,-100.00,East,92,3.0,12.0,55,0.00,,,2.82,640.000000,,2013-04-14 20:52:00,
2013-04-14 16:02:00,74.0,57.0,-100.00,East,92,3.0,12.0,55,0.00,,,2.82,640.000000,,2013-04-14 21:02:00,
2013-04-14 16:33:00,74.0,58.0,-100.00,East,96,3.0,8.0,57,0.00,,,2.82,283.000000,,2013-04-14 21:33:00,
2013-04-14 16:43:00,74.0,58.0,-100.00,East,96,3.0,8.0,57,0.00,,,2.82,283.000000,,2013-04-14 21:43:00,
2013-04-14 16:53:00,74.0,58.0,-100.00,East,96,3.0,8.0,57,0.00,,,2.82,283.000000,,2013-04-14 21:53:00,
2013-04-14 17:03:00,74.0,58.0,-100.00,East,96,3.0,8.0,57,0.00,,,2.82,283.000000,,2013-04-14 22:03:00,
2013-04-14 17:33:00,75.0,59.0,-100.00,SE,134,3.0,9.0,57,0.00,,,2.82,327.000000,,2013-04-14 22:33:00,
2013-04-14 17:44:00,75.0,59.0,-100.00,SE,134,3.0,9.0,57,0.00,,,2.82,327.000000,,2013-04-14 22:44:00,
2013-04-14 17:53:00,75.0,59.0,-100.00,SE,134,3.0,9.0,57,0.00,,,2.82,327.000000,,2013-04-14 22:53:00,
2013-04-14 18:02:00,75.0,59.0,-100.00,SE,134,3.0,9.0,57,0.00,,,2.82,327.000000,,2013-04-14 23:02:00,
2013-04-14 18:33:00,73.0,59.0,-100.00,East,88,2.0,9.0,62,0.00,,,2.82,207.000000,,2013-04-14 23:33:00,
2013-04-14 18:43:00,73.0,59.0,-100.00,East,88,2.0,9.0,62,0.00,,,2.82,207.000000,,2013-04-14 23:43:00,
2013-04-14 18:53:00,73.0,59.0,-100.00,East,88,2.0,9.0,62,0.00,,,2.82,207.000000,,2013-04-14 23:53:00,
2013-04-14 19:02:00,73.0,59.0,-100.00,East,88,2.0,9.0,62,0.00,,,2.82,207.000000,,2013-04-15 00:02:00,
2013-04-14 19:33:00,68.0,60.0,-100.00,ESE,109,1.0,5.0,75,0.00,,,-99.99,47.000000,,2013-04-15 00:33:00,
2013-04-14 19:43:00,68.0,60.0,-100.00,ESE,109,1.0,5.0,75,0.00,,,-99.99,47.000000,,2013-04-15 00:43:00,
2013-04-14 19:52:00,68.0,60.0,-100.00,ESE,109,1.0,5.0,75,0.00,,,-99.99,47.000000,,2013-04-15 00:52:00,
2013-04-14 20:02:00,68.0,60.0,-100.00,ESE,109,1.0,5.0,75,0.00,,,-99.99,47.000000,,2013-04-15 01:02:00,
2013-04-14 20:33:00,65.0,60.0,-100.00,ENE,67,1.0,3.0,83,0.00,,,2.82,4.000000,,2013-04-15 01:33:00,
2013-04-14 20:42:00,65.0,60.0,-100.00,ENE,67,1.0,3.0,83,0.00,,,2.82,4.000000,,2013-04-15 01:42:00,
2013-04-14 20:52:00,65.0,60.0,-100.00,ENE,67,1.0,3.0,83,0.00,,,2.82,4.000000,,2013-04-15 01:52:00,
2013-04-14 21:02:00,65.0,60.0,-100.00,ENE,67,1.0,3.0,83,0.00,,,2.82,4.000000,,2013-04-15 02:02:00,
2013-04-14 21:32:00,61.0,59.0,-100.00,WSW,240,0.0,2.0,94,0.00,,,2.82,0.000000,,2013-04-15 02:32:00,
2013-04-14 21:42:00,61.0,59.0,-100.00,WSW,240,0.0,2.0,94,0.00,,,2.82,0.000000,,2013-04-15 02:42:00,
2013-04-14 21:53:00,61.0,59.0,-100.00,WSW,240,0.0,2.0,94,0.00,,,2.82,0.000000,,2013-04-15 02:53:00,
2013-04-14 22:03:00,61.0,59.0,-100.00,WSW,240,0.0,2.0,94,0.00,,,2.82,0.000000,,2013-04-15 03:03:00,
2013-04-14 22:33:00,59.0,58.0,-100.00,SW,229,0.0,0.0,96,0.00,,,2.82,0.000000,,2013-04-15 03:33:00,
2013-04-14 22:43:00,59.0,58.0,-100.00,SW,229,0.0,0.0,96,0.00,,,2.82,0.000000,,2013-04-15 03:43:00,
2013-04-14 22:55:00,59.0,58.0,-100.00,SW,229,0.0,0.0,96,0.00,,,2.82,0.000000,,2013-04-15 03:55:00,
2013-04-14 23:03:00,59.0,58.0,-100.00,SW,229,0.0,0.0,96,0.00,,,2.82,0.000000,,2013-04-15 04:03:00,
2013-04-14 23:33:00,58.0,57.0,-100.00,SW,221,0.0,0.0,98,0.00,,,2.82,0.000000,,2013-04-15 04:33:00,
2013-04-14 23:43:00,58.0,57.0,-100.00,SW,221,0.0,0.0,98,0.00,,,2.82,0.000000,,2013-04-15 04:43:00,
2013-04-14 23:53:00,58.0,57.0,-100.00,SW,221,0.0,0.0,98,0.00,,,2.82,0.000000,,2013-04-15 04:53:00,